Terminal Aerodrome Forecast
Issued by NWS Salt Lake City, UT

Home | Current Version | Previous Version | Text Only | Print | Product List | Glossary On
Versions: 1 2 3 4 5 6 7 8 9 10 11 12 13 14 15 16 17 18 19 20 21 22 23 24 25 26 27 28 29 30 31 32 33 34 35 36 37 38 39
000
FTUS45 KSLC 231147 AAA
TAFSLC
TAF AMD
KSLC 231147Z 2312/2418 15006KT 6SM -SHSN SCT015 BKN030
     FM231400 30010KT 2SM -SN BR SCT009 BKN020
     FM231900 32008KT 6SM -SHSN BR SCT015 BKN030
     FM240300 33007KT P6SM VCSH SCT025 BKN050=

USA.gov is the U.S. government's official web portal to all federal, state and local government web resources and services.